createdAt,value
2019-04-21T00:00:31.843Z,12.40
2019-04-21T00:05:49.948Z,12.50
2019-04-21T00:10:40.626Z,12.43
2019-04-21T00:15:20.235Z,11.97
2019-04-21T00:20:17.625Z,11.10
2019-04-21T00:25:13.973Z,11.53
2019-04-21T00:30:15.688Z,10.80
2019-04-21T00:34:51.000Z,11.20
2019-04-21T00:44:44.247Z,10.70
2019-04-21T00:49:42.770Z,11.43
2019-04-21T00:54:51.666Z,11.90
2019-04-21T00:59:33.563Z,11.57
2019-04-21T01:04:30.459Z,10.97
2019-04-21T01:09:19.769Z,11.07
2019-04-21T01:14:21.967Z,11.17
2019-04-21T01:19:05.330Z,11.27
2019-04-21T01:23:42.363Z,10.47
2019-04-21T01:28:52.475Z,11.30
2019-04-21T01:33:50.864Z,10.20
2019-04-21T01:38:51.015Z,11.10
2019-04-21T01:43:36.556Z,11.40
2019-04-21T01:48:28.975Z,11.37
2019-04-21T01:53:53.489Z,10.53
2019-04-21T01:58:29.086Z,12.10
2019-04-21T02:03:48.620Z,11.70
2019-04-21T02:08:21.503Z,12.13
2019-04-21T02:13:16.904Z,11.70
2019-04-21T02:18:11.963Z,12.40
2019-04-21T02:23:20.450Z,12.57
2019-04-21T02:28:09.909Z,14.17
2019-04-21T02:33:08.777Z,13.97
2019-04-21T02:38:01.190Z,13.83
2019-04-21T02:43:00.249Z,15.07
2019-04-21T02:52:49.362Z,14.83
2019-04-21T02:57:34.293Z,14.70
2019-04-21T03:02:54.603Z,15.17
2019-04-21T03:07:55.441Z,14.80
2019-04-21T03:17:43.900Z,15.13
2019-04-21T03:32:55.347Z,16.40
2019-04-21T03:37:23.398Z,14.97
2019-04-21T03:51:59.308Z,16.20
2019-04-21T03:57:05.619Z,15.93
2019-04-21T04:02:08.628Z,16.93
2019-04-21T04:07:06.096Z,17.03
2019-04-21T04:11:53.072Z,17.20
2019-04-21T04:17:08.672Z,18.13
2019-04-21T04:26:37.376Z,18.10
2019-04-21T04:31:35.291Z,17.87
2019-04-21T04:41:24.468Z,18.00
2019-04-21T04:46:17.905Z,18.63
2019-04-21T04:51:01.325Z,19.47
2019-04-21T05:06:15.679Z,21.27
2019-04-21T05:11:20.749Z,22.30
2019-04-21T05:15:50.027Z,23.40
2019-04-21T05:20:41.581Z,23.30
2019-04-21T05:25:23.052Z,24.13
2019-04-21T05:30:44.493Z,26.63
2019-04-21T05:36:04.791Z,27.60
2019-04-21T05:40:50.069Z,27.73
2019-04-21T05:45:53.530Z,27.63
2019-04-21T05:50:40.095Z,30.90
2019-04-21T06:05:30.155Z,32.97
2019-04-21T06:10:16.916Z,35.53
2019-04-21T06:15:14.115Z,35.37
2019-04-21T06:20:05.933Z,36.87
2019-04-21T06:29:55.699Z,18.10
2019-04-21T06:35:04.256Z,15.03
2019-04-21T06:39:52.144Z,12.93
2019-04-21T06:44:33.057Z,11.50
2019-04-21T06:49:27.405Z,8.47
2019-04-21T06:54:21.091Z,7.70
2019-04-21T06:59:09.533Z,6.67
2019-04-21T07:04:12.833Z,7.83
2019-04-21T07:09:10.143Z,6.93
2019-04-21T07:14:25.705Z,6.10
2019-04-21T07:19:34.929Z,5.77
2019-04-21T07:24:14.131Z,5.80
2019-04-21T07:29:08.033Z,5.97
2019-04-21T07:34:07.830Z,5.70
2019-04-21T07:38:49.860Z,5.77
2019-04-21T07:43:39.426Z,6.43
2019-04-21T07:48:43.161Z,6.07
2019-04-21T07:53:49.905Z,5.27
2019-04-21T07:58:51.078Z,6.00
2019-04-21T08:03:33.665Z,6.67
2019-04-21T08:08:20.942Z,7.47
2019-04-21T08:13:28.863Z,7.37
2019-04-21T08:18:11.707Z,6.53
2019-04-21T08:23:04.716Z,7.30
2019-04-21T08:27:59.876Z,7.60
2019-04-21T08:33:01.826Z,7.50
2019-04-21T08:37:43.318Z,7.40
2019-04-21T08:42:41.538Z,7.13
2019-04-21T08:47:33.899Z,7.30
2019-04-21T08:52:36.215Z,6.87
2019-04-21T08:57:46.440Z,7.00
2019-04-21T09:02:35.005Z,7.23
2019-04-21T09:07:36.235Z,7.37
2019-04-21T09:12:24.163Z,7.30
2019-04-21T09:17:06.484Z,7.40
2019-04-21T09:22:05.825Z,6.30
2019-04-21T09:26:57.281Z,7.00
2019-04-21T09:31:39.974Z,6.57
2019-04-21T09:36:35.056Z,6.63
2019-04-21T09:41:25.513Z,6.70
2019-04-21T09:46:16.201Z,6.70
2019-04-21T09:51:09.387Z,6.97
2019-04-21T09:56:05.468Z,5.93
2019-04-21T10:01:05.126Z,4.93
2019-04-21T10:05:50.084Z,4.33
2019-04-21T10:10:44.467Z,4.13
2019-04-21T10:15:37.694Z,3.10
2019-04-21T10:20:30.944Z,3.90
2019-04-21T10:25:25.047Z,3.70
2019-04-21T10:30:17.614Z,3.53
2019-04-21T10:35:11.218Z,3.30
2019-04-21T10:40:05.398Z,3.13
2019-04-21T10:44:58.890Z,3.33
2019-04-21T10:49:52.857Z,3.20
2019-04-21T10:55:10.095Z,3.60
2019-04-21T10:59:40.406Z,3.37
2019-04-21T11:04:36.656Z,3.20
2019-04-21T11:09:26.418Z,3.30
2019-04-21T11:14:19.500Z,3.07
2019-04-21T11:19:13.752Z,3.20
2019-04-21T11:24:06.550Z,2.90
2019-04-21T11:29:01.095Z,3.37
2019-04-21T11:33:53.624Z,3.47
2019-04-21T11:39:06.146Z,3.37
2019-04-21T11:43:48.815Z,3.13
2019-04-21T11:48:42.119Z,3.03
2019-04-21T11:53:34.901Z,2.80
2019-04-21T11:58:28.265Z,2.90
2019-04-21T12:03:22.134Z,3.27
2019-04-21T12:08:23.096Z,2.93
2019-04-21T12:13:09.956Z,3.50
2019-04-21T12:18:03.559Z,2.97
2019-04-21T12:22:56.990Z,3.17
2019-04-21T12:27:49.950Z,3.10
2019-04-21T12:32:49.652Z,3.30
2019-04-21T12:37:43.086Z,3.23
2019-04-21T12:42:38.820Z,3.33
2019-04-21T12:47:30.262Z,3.60
2019-04-21T12:52:24.003Z,3.83
2019-04-21T12:57:17.195Z,3.70
2019-04-21T13:02:11.750Z,3.87
2019-04-21T13:07:05.329Z,4.03
2019-04-21T13:11:57.799Z,4.00
2019-04-21T13:16:51.755Z,3.63
2019-04-21T13:21:45.838Z,3.90
2019-04-21T13:26:45.639Z,3.57
2019-04-21T13:31:32.133Z,4.00
2019-04-21T13:36:25.813Z,4.20
2019-04-21T13:41:32.806Z,4.40
2019-04-21T13:46:15.485Z,3.77
2019-04-21T13:51:09.144Z,4.47
2019-04-21T13:56:02.641Z,3.80
2019-04-21T14:00:56.119Z,4.23
2019-04-21T14:05:50.609Z,4.33
2019-04-21T14:10:43.942Z,4.30
2019-04-21T14:15:36.709Z,4.93
2019-04-21T14:20:31.104Z,6.20
2019-04-21T14:25:23.905Z,6.10
2019-04-21T14:30:18.580Z,6.07
2019-04-21T14:35:10.952Z,5.50
2019-04-21T14:40:09.045Z,6.53
2019-04-21T14:44:58.826Z,6.07
2019-04-21T14:50:17.666Z,6.73
2019-04-21T14:55:18.545Z,6.30
2019-04-21T15:00:11.176Z,6.23
2019-04-21T15:05:04.852Z,5.80
2019-04-21T15:10:04.801Z,6.37
2019-04-21T15:14:51.963Z,6.10
2019-04-21T15:19:53.969Z,6.13
2019-04-21T15:24:40.428Z,6.20
2019-04-21T15:29:33.004Z,6.47
2019-04-21T15:34:27.347Z,5.80
2019-04-21T15:39:19.794Z,6.10
2019-04-21T15:44:14.548Z,5.90
2019-04-21T15:49:07.007Z,6.20
2019-04-21T15:54:00.689Z,5.40
2019-04-21T15:58:58.991Z,6.03
2019-04-21T16:03:53.326Z,6.20
2019-04-21T16:08:47.410Z,5.90
2019-04-21T16:13:39.698Z,8.03
2019-04-21T16:18:34.147Z,8.53
2019-04-21T16:23:26.742Z,8.40
2019-04-21T16:28:21.537Z,7.20
2019-04-21T16:33:14.344Z,8.20
2019-04-21T16:38:07.843Z,7.53
2019-04-21T16:43:00.423Z,9.23
2019-04-21T16:47:55.520Z,9.07
2019-04-21T16:52:52.237Z,9.23
2019-04-21T16:57:59.681Z,8.17
2019-04-21T17:02:42.782Z,6.90
2019-04-21T17:07:35.062Z,7.33
2019-04-21T17:12:30.555Z,7.43
2019-04-21T17:17:48.059Z,7.90
2019-04-21T17:22:15.674Z,8.10
2019-04-21T17:27:09.112Z,9.13
2019-04-21T17:32:09.816Z,8.10
2019-04-21T17:37:03.513Z,8.60
2019-04-21T17:42:10.970Z,8.60
2019-04-21T17:46:57.569Z,8.77
2019-04-21T17:52:05.935Z,9.30
2019-04-21T17:57:17.875Z,8.87
2019-04-21T18:02:04.104Z,8.00
2019-04-21T18:07:00.843Z,8.27
2019-04-21T18:12:01.562Z,7.80
2019-04-21T18:16:40.058Z,7.40
2019-04-21T18:21:34.656Z,7.33
2019-04-21T18:26:38.690Z,8.63
2019-04-21T18:31:22.829Z,8.27
2019-04-21T18:36:34.070Z,8.67
2019-04-21T18:41:27.007Z,9.57
2019-04-21T18:47:07.345Z,9.40
2019-04-21T18:51:59.665Z,8.83
2019-04-21T18:56:53.612Z,10.20
2019-04-21T19:01:38.901Z,10.43
2019-04-21T19:06:48.419Z,9.97
2019-04-21T19:11:46.711Z,10.50
2019-04-21T19:17:13.874Z,10.07
2019-04-21T19:21:24.198Z,10.50
2019-04-21T19:31:24.834Z,11.50
2019-04-21T19:35:53.097Z,12.63
2019-04-21T19:41:00.792Z,13.07
2019-04-21T19:45:54.272Z,11.83
2019-04-21T19:50:55.917Z,12.37
2019-04-21T19:55:26.175Z,13.13
2019-04-21T20:00:19.594Z,12.40
2019-04-21T20:05:23.631Z,12.93
2019-04-21T20:10:26.902Z,13.30
2019-04-21T20:15:26.075Z,13.80
2019-04-21T20:19:54.102Z,11.33
2019-04-21T20:24:53.988Z,11.60
2019-04-21T20:29:57.931Z,12.57
2019-04-21T20:34:57.361Z,11.57
2019-04-21T20:39:39.153Z,11.10
2019-04-21T20:44:42.304Z,11.60
2019-04-21T20:49:27.478Z,11.27
2019-04-21T20:54:24.681Z,11.77
2019-04-21T20:59:17.545Z,12.23
2019-04-21T21:04:06.429Z,11.27
2019-04-21T21:09:04.821Z,11.20
2019-04-21T21:13:58.698Z,12.43
2019-04-21T21:19:06.932Z,13.10
2019-04-21T21:23:48.092Z,12.50
2019-04-21T21:28:38.018Z,11.77
2019-04-21T21:33:45.297Z,10.90
2019-04-21T21:38:31.447Z,11.63
2019-04-21T21:43:08.188Z,11.83
2019-04-21T21:48:16.156Z,12.10
2019-04-21T21:53:02.205Z,12.17
2019-04-21T21:57:49.900Z,12.63
2019-04-21T22:02:44.209Z,13.40
2019-04-21T22:07:33.216Z,12.90
2019-04-21T22:12:25.854Z,13.53
2019-04-21T22:17:34.724Z,13.80
2019-04-21T22:22:29.873Z,13.50
2019-04-21T22:27:05.475Z,13.80
2019-04-21T22:32:04.236Z,12.00
2019-04-21T22:37:01.376Z,12.70
2019-04-21T22:41:49.212Z,12.70
2019-04-21T22:46:53.015Z,12.90
2019-04-21T22:51:38.339Z,12.93
2019-04-21T22:56:32.052Z,12.37
2019-04-21T23:01:28.504Z,12.57
2019-04-21T23:06:21.172Z,13.03
2019-04-21T23:11:12.191Z,13.07
2019-04-21T23:16:03.153Z,11.17
2019-04-21T23:21:10.169Z,10.03
2019-04-21T23:26:09.100Z,10.87
2019-04-21T23:31:00.884Z,10.80
2019-04-21T23:35:40.035Z,9.90
2019-04-21T23:40:30.832Z,9.63
2019-04-21T23:45:25.214Z,9.60
2019-04-21T23:50:25.132Z,10.20
2019-04-21T23:55:09.363Z,9.43
